Time;durP1;ratioP1;P1;durP2;ratioP2;P2;SDS_P1;SDS_P2;PMS_P1;PMS_P2;Temp;Humidity;BMP_temperature;BMP_pressure;BME280_temperature;BME280_humidity;BME280_pressure;Samples;Min_cycle;Max_cycle;Signal;HPM_P1;HPM_P2
2023/06/17 00:02:19;;;;;;;10.65;8.10;;;15.40;99.90;;;;;;6249239;22;20012;-83
2023/06/17 00:04:46;;;;;;;11.90;8.65;;;15.40;99.90;;;;;;6223934;22;20007;-80
2023/06/17 00:07:11;;;;;;;10.77;8.77;;;15.40;99.90;;;;;;6223478;22;20026;-82
2023/06/17 00:09:40;;;;;;;10.50;8.93;;;15.40;99.90;;;;;;6300660;22;20012;-82
2023/06/17 00:12:07;;;;;;;12.80;8.52;;;15.30;99.90;;;;;;6224059;22;20523;-83
2023/06/17 00:14:33;;;;;;;12.77;8.70;;;15.30;99.90;;;;;;6248594;22;20095;-82
2023/06/17 00:17:00;;;;;;;13.13;9.20;;;15.30;99.90;;;;;;6223952;22;20012;-83
2023/06/17 00:19:27;;;;;;;13.45;9.38;;;15.30;99.90;;;;;;6274893;22;20012;-83
2023/06/17 00:21:53;;;;;;;13.20;10.48;;;15.30;99.90;;;;;;6224102;22;20008;-83
2023/06/17 00:24:19;;;;;;;14.57;10.40;;;15.40;99.90;;;;;;6248902;22;20060;-83
2023/06/17 00:26:46;;;;;;;13.75;9.40;;;15.40;99.90;;;;;;6249176;22;20523;-83
2023/06/17 00:29:11;;;;;;;14.27;10.05;;;15.40;99.90;;;;;;6249272;22;20461;-82
2023/06/17 00:31:37;;;;;;;14.57;10.18;;;15.50;99.90;;;;;;6224093;22;20015;-82
2023/06/17 00:34:03;;;;;;;14.13;10.50;;;15.60;99.90;;;;;;6223753;22;20043;-82
2023/06/17 00:36:28;;;;;;;17.75;10.95;;;15.60;99.90;;;;;;6224007;22;20381;-82
2023/06/17 00:38:54;;;;;;;13.32;11.90;;;15.60;99.90;;;;;;6223496;22;20016;-82
2023/06/17 00:41:20;;;;;;;16.20;11.68;;;15.60;99.90;;;;;;6223910;22;20018;-82
2023/06/17 00:43:46;;;;;;;14.63;10.30;;;15.60;99.90;;;;;;6223095;22;20099;-83
2023/06/17 00:46:30;;;;;;;13.90;10.23;;;15.60;99.90;;;;;;6223350;22;20016;-82
2023/06/17 00:48:56;;;;;;;14.82;11.05;;;15.70;99.90;;;;;;6224003;22;20020;-82
2023/06/17 00:51:22;;;;;;;17.00;11.35;;;15.70;99.90;;;;;;6249143;22;20532;-82
2023/06/17 00:53:48;;;;;;;15.80;11.68;;;15.70;99.90;;;;;;6248789;22;20026;-82
2023/06/17 00:56:17;;;;;;;15.27;11.05;;;15.70;99.90;;;;;;6223372;22;20051;-82
2023/06/17 00:58:45;;;;;;;19.13;12.00;;;15.70;99.90;;;;;;6223963;22;20023;-82
2023/06/17 01:01:11;;;;;;;17.73;12.48;;;15.80;99.90;;;;;;6225717;22;20015;-81
2023/06/17 01:03:36;;;;;;;17.95;12.48;;;15.80;99.90;;;;;;6225457;22;20014;-82
2023/06/17 01:06:09;;;;;;;19.85;13.93;;;15.80;99.90;;;;;;6250454;22;20016;-82
2023/06/17 01:08:44;;;;;;;16.58;12.98;;;15.90;99.90;;;;;;6250927;22;20019;-84
2023/06/17 01:11:13;;;;;;;17.13;13.00;;;15.90;99.90;;;;;;6225217;22;20012;-81
2023/06/17 01:13:42;;;;;;;17.83;12.50;;;15.90;99.90;;;;;;6225617;22;20019;-81
2023/06/17 01:16:08;;;;;;;15.77;12.10;;;15.90;99.90;;;;;;6225188;22;20007;-82
2023/06/17 01:18:36;;;;;;;19.33;14.35;;;16.00;99.90;;;;;;6225597;22;20012;-82
2023/06/17 01:21:04;;;;;;;18.85;13.57;;;16.10;99.90;;;;;;6250891;22;20018;-83
2023/06/17 01:23:32;;;;;;;17.33;13.68;;;16.00;99.90;;;;;;6225182;22;20022;-82
2023/06/17 01:25:58;;;;;;;19.65;14.15;;;16.10;99.90;;;;;;6250414;22;20011;-81
2023/06/17 01:28:24;;;;;;;19.90;13.80;;;16.10;99.90;;;;;;6225554;22;20012;-82
2023/06/17 01:30:54;;;;;;;20.63;14.80;;;16.10;99.90;;;;;;6225518;22;20389;-84
2023/06/17 01:33:20;;;;;;;20.30;14.15;;;16.10;99.90;;;;;;6250484;22;20451;-82
2023/06/17 01:35:57;;;;;;;20.65;16.13;;;16.10;99.90;;;;;;6224718;22;20111;-83
2023/06/17 01:38:30;;;;;;;17.75;14.73;;;16.20;99.90;;;;;;6225405;22;20511;-82
2023/06/17 01:41:05;;;;;;;18.63;14.57;;;16.20;99.90;;;;;;6250771;22;20012;-82
2023/06/17 01:43:34;;;;;;;21.67;15.70;;;16.20;99.90;;;;;;6250377;22;20016;-82
2023/06/17 01:46:01;;;;;;;22.67;15.90;;;16.20;99.90;;;;;;6250098;22;20015;-81
2023/06/17 01:48:27;;;;;;;24.10;16.60;;;16.20;99.90;;;;;;6224515;22;20062;-82
2023/06/17 01:50:52;;;;;;;20.70;16.65;;;16.20;99.90;;;;;;6224877;22;20008;-81
2023/06/17 01:53:18;;;;;;;22.42;16.90;;;16.20;99.90;;;;;;6250661;22;20011;-81
2023/06/17 01:55:44;;;;;;;22.60;16.60;;;16.20;99.90;;;;;;6224813;22;20348;-81
2023/06/17 01:58:10;;;;;;;19.48;15.82;;;16.20;99.90;;;;;;6250667;22;20004;-82
2023/06/17 02:00:35;;;;;;;19.92;15.77;;;16.20;99.90;;;;;;6250531;22;20078;-82
2023/06/17 02:03:01;;;;;;;19.40;16.35;;;16.20;99.90;;;;;;6249879;22;20043;-82
2023/06/17 02:05:27;;;;;;;22.27;16.70;;;16.20;99.90;;;;;;6249990;22;20047;-82
2023/06/17 02:07:55;;;;;;;23.25;16.33;;;16.20;99.90;;;;;;6195028;23;20027;-82
2023/06/17 02:10:20;;;;;;;21.08;16.45;;;16.30;99.90;;;;;;6219946;23;20131;-82
2023/06/17 02:12:46;;;;;;;19.45;15.00;;;16.30;99.90;;;;;;6219661;23;20419;-82
2023/06/17 02:15:11;;;;;;;20.30;16.08;;;16.20;99.90;;;;;;6217748;23;20008;-82
2023/06/17 02:17:37;;;;;;;20.73;15.32;;;16.20;99.90;;;;;;6194042;23;20012;-82
2023/06/17 02:20:06;;;;;;;22.88;17.10;;;16.20;99.90;;;;;;6194132;23;20031;-82
2023/06/17 02:22:31;;;;;;;19.58;16.77;;;16.20;99.90;;;;;;6193876;23;20016;-82
2023/06/17 02:24:57;;;;;;;21.83;15.18;;;16.20;99.90;;;;;;6194340;23;20078;-82
2023/06/17 02:27:22;;;;;;;20.83;16.35;;;16.20;99.90;;;;;;6245294;23;20011;-82
2023/06/17 02:29:48;;;;;;;24.80;17.48;;;16.30;99.90;;;;;;6219487;23;20011;-82
2023/06/17 02:32:14;;;;;;;20.58;16.10;;;16.30;99.90;;;;;;6194477;23;20005;-82
2023/06/17 02:34:42;;;;;;;20.80;16.90;;;16.30;99.90;;;;;;6194219;23;20449;-82
2023/06/17 02:37:08;;;;;;;21.95;17.35;;;16.30;99.90;;;;;;6244814;23;20338;-82
2023/06/17 02:39:33;;;;;;;20.25;17.05;;;16.30;99.90;;;;;;6194428;23;20065;-82
2023/06/17 02:41:59;;;;;;;22.42;17.80;;;16.40;99.90;;;;;;6194525;23;20434;-82
2023/06/17 02:44:24;;;;;;;23.52;16.80;;;16.30;99.90;;;;;;6219361;23;20014;-82
2023/06/17 02:46:50;;;;;;;26.00;18.17;;;16.40;99.90;;;;;;6194207;23;20019;-82
2023/06/17 02:49:16;;;;;;;24.42;19.00;;;16.40;99.90;;;;;;6194361;23;20024;-82
2023/06/17 02:51:42;;;;;;;24.30;18.25;;;16.40;99.90;;;;;;6194579;23;20381;-81
2023/06/17 02:54:07;;;;;;;27.48;19.95;;;16.40;99.90;;;;;;6194326;23;20008;-82
2023/06/17 02:56:33;;;;;;;22.48;17.83;;;16.30;99.90;;;;;;6194069;23;20019;-82
2023/06/17 02:59:00;;;;;;;23.23;17.77;;;16.30;99.90;;;;;;6219482;23;20012;-82
2023/06/17 03:01:26;;;;;;;27.40;17.75;;;16.30;99.90;;;;;;6219607;23;20022;-82
2023/06/17 03:03:54;;;;;;;21.00;17.38;;;16.30;99.90;;;;;;6244450;23;20012;-82
2023/06/17 03:06:21;;;;;;;20.20;16.50;;;16.40;99.90;;;;;;6225185;23;20026;-82
2023/06/17 03:08:47;;;;;;;24.10;18.90;;;16.40;99.90;;;;;;6218613;23;20058;-82
2023/06/17 03:11:13;;;;;;;23.83;18.75;;;16.40;99.90;;;;;;6219526;23;20012;-82
2023/06/17 03:13:38;;;;;;;24.90;18.65;;;16.30;99.90;;;;;;6244717;23;20019;-82
2023/06/17 03:16:05;;;;;;;25.52;18.67;;;16.30;99.90;;;;;;6244252;23;20019;-82
2023/06/17 03:18:31;;;;;;;24.40;18.45;;;16.30;99.90;;;;;;6219322;23;20012;-82
2023/06/17 03:20:57;;;;;;;29.27;18.90;;;16.30;99.90;;;;;;6219330;23;20019;-82
2023/06/17 03:23:23;;;;;;;22.30;19.23;;;16.30;99.90;;;;;;6244053;23;20019;-82
2023/06/17 03:25:49;;;;;;;27.80;19.73;;;16.40;99.90;;;;;;6218542;23;20019;-82
2023/06/17 03:28:15;;;;;;;26.95;19.63;;;16.40;99.90;;;;;;6244346;23;20012;-82
2023/06/17 03:30:41;;;;;;;23.73;19.30;;;16.40;99.90;;;;;;6244350;23;20005;-82
2023/06/17 03:33:08;;;;;;;24.88;19.20;;;16.30;99.90;;;;;;6218922;23;20008;-82
2023/06/17 03:35:34;;;;;;;24.90;19.88;;;16.30;99.90;;;;;;6244123;23;20339;-82
2023/06/17 03:38:00;;;;;;;24.83;19.85;;;16.30;99.90;;;;;;6244392;23;20009;-82
2023/06/17 03:40:25;;;;;;;24.30;20.30;;;16.40;99.90;;;;;;6244342;23;20016;-82
2023/06/17 03:42:51;;;;;;;24.15;20.67;;;16.30;99.90;;;;;;6218840;23;20015;-83
2023/06/17 03:45:17;;;;;;;25.88;19.85;;;16.30;99.90;;;;;;6218685;23;20016;-83
2023/06/17 03:47:42;;;;;;;22.95;19.00;;;16.30;99.90;;;;;;6218488;23;20015;-82
2023/06/17 03:50:08;;;;;;;24.60;19.88;;;16.30;99.90;;;;;;6209378;23;20020;-82
2023/06/17 03:52:34;;;;;;;23.63;18.92;;;16.30;99.90;;;;;;6236752;23;20051;-83
2023/06/17 03:55:00;;;;;;;23.63;18.92;;;16.40;99.90;;;;;;6218977;23;20019;-83
2023/06/17 03:57:26;;;;;;;25.42;20.67;;;16.30;99.90;;;;;;6241516;23;20009;-82
2023/06/17 03:59:52;;;;;;;23.80;18.63;;;16.30;99.90;;;;;;6206765;23;20501;-83
2023/06/17 04:02:17;;;;;;;23.70;19.55;;;16.40;99.90;;;;;;6209751;23;20016;-82
2023/06/17 04:04:43;;;;;;;24.42;20.63;;;16.40;99.90;;;;;;6206263;23;20394;-83
2023/06/17 04:07:09;;;;;;;23.15;19.55;;;16.30;99.90;;;;;;6215531;23;20054;-83
2023/06/17 04:09:34;;;;;;;22.63;19.67;;;16.40;99.90;;;;;;6209264;23;20020;-82
2023/06/17 04:12:02;;;;;;;22.88;19.05;;;16.30;99.90;;;;;;6206431;23;20058;-82
2023/06/17 04:14:27;;;;;;;22.98;20.08;;;16.30;99.90;;;;;;6181423;23;20008;-82
2023/06/17 04:16:53;;;;;;;25.95;19.15;;;16.30;99.90;;;;;;6185522;23;20082;-82
2023/06/17 04:19:19;;;;;;;26.10;21.13;;;16.30;99.90;;;;;;6182837;23;20019;-82
2023/06/17 04:21:44;;;;;;;26.48;20.85;;;16.30;99.90;;;;;;6208975;23;20019;-82
2023/06/17 04:24:10;;;;;;;23.60;20.38;;;16.40;99.90;;;;;;6181888;23;20012;-83
2023/06/17 04:26:36;;;;;;;22.73;19.52;;;16.30;99.90;;;;;;6181808;23;20016;-82
2023/06/17 04:29:03;;;;;;;27.10;19.65;;;16.20;99.90;;;;;;6181400;23;20016;-82
2023/06/17 04:31:29;;;;;;;24.83;20.98;;;16.30;99.90;;;;;;6181165;23;20139;-82
2023/06/17 04:33:54;;;;;;;21.45;18.50;;;16.30;99.90;;;;;;6183539;23;20055;-82
2023/06/17 04:36:21;;;;;;;23.08;18.25;;;16.30;99.90;;;;;;6209588;23;20019;-83
2023/06/17 04:38:49;;;;;;;22.17;19.15;;;16.20;99.90;;;;;;6208681;23;20071;-83
2023/06/17 04:41:19;;;;;;;22.50;19.90;;;16.20;99.90;;;;;;6208053;23;20025;-82
2023/06/17 04:43:48;;;;;;;22.95;19.08;;;16.20;99.90;;;;;;6183148;23;20484;-82
2023/06/17 04:46:16;;;;;;;22.77;18.08;;;16.30;99.90;;;;;;6185706;23;20031;-82
2023/06/17 04:48:43;;;;;;;23.63;18.65;;;16.20;99.90;;;;;;6220477;23;20099;-82
2023/06/17 04:51:09;;;;;;;23.55;19.10;;;16.30;99.90;;;;;;6195808;23;20004;-82
2023/06/17 04:53:38;;;;;;;23.40;18.45;;;16.30;99.90;;;;;;6195390;23;20016;-82
2023/06/17 04:56:06;;;;;;;26.92;19.20;;;16.30;99.90;;;;;;6211919;23;20012;-82
2023/06/17 04:58:32;;;;;;;26.58;20.52;;;16.30;99.90;;;;;;6192855;23;20457;-83
2023/06/17 05:00:58;;;;;;;25.88;20.45;;;16.20;99.90;;;;;;6195595;23;20012;-83
2023/06/17 05:03:23;;;;;;;24.13;17.80;;;16.20;99.90;;;;;;6195232;23;20354;-83
2023/06/17 05:05:50;;;;;;;24.27;18.23;;;16.20;99.90;;;;;;6189193;22;20023;-83
2023/06/17 05:08:15;;;;;;;24.35;18.23;;;16.20;99.90;;;;;;6212986;22;20492;-83
2023/06/17 05:10:41;;;;;;;25.20;18.75;;;16.30;99.90;;;;;;6213328;22;20043;-82
2023/06/17 05:13:07;;;;;;;24.10;18.50;;;16.30;99.90;;;;;;6238326;22;20094;-83
2023/06/17 05:15:32;;;;;;;23.95;18.27;;;16.30;99.90;;;;;;6242281;22;20086;-83
2023/06/17 05:17:58;;;;;;;22.50;17.58;;;16.30;99.90;;;;;;6245769;22;20008;-82
2023/06/17 05:20:23;;;;;;;21.52;17.65;;;16.20;99.90;;;;;;6213449;22;20073;-82
2023/06/17 05:22:49;;;;;;;19.85;17.40;;;16.20;99.90;;;;;;6212999;22;20560;-83
2023/06/17 05:25:15;;;;;;;19.13;17.02;;;16.20;99.90;;;;;;6213322;22;20098;-82
2023/06/17 05:27:41;;;;;;;22.85;18.67;;;16.10;99.90;;;;;;6240162;22;20023;-83
2023/06/17 05:30:07;;;;;;;21.92;18.48;;;16.10;99.90;;;;;;6214165;22;20020;-82
2023/06/17 05:32:32;;;;;;;22.90;17.17;;;16.20;99.90;;;;;;6239960;22;20426;-82
2023/06/17 05:34:58;;;;;;;24.67;20.13;;;16.20;99.90;;;;;;6214939;22;20012;-82
2023/06/17 05:37:24;;;;;;;24.23;18.30;;;16.10;99.90;;;;;;6212949;22;20011;-82
2023/06/17 05:39:49;;;;;;;21.27;17.98;;;16.20;99.90;;;;;;6206474;22;20016;-83
2023/06/17 05:42:15;;;;;;;21.92;18.05;;;16.20;99.90;;;;;;6233650;22;20436;-83
2023/06/17 05:44:41;;;;;;;26.70;18.50;;;16.30;99.90;;;;;;6211038;22;20323;-83
2023/06/17 05:47:06;;;;;;;21.75;17.60;;;16.20;99.90;;;;;;6238262;22;20023;-82
2023/06/17 05:49:32;;;;;;;24.08;17.30;;;16.20;99.90;;;;;;6244855;22;20381;-82
2023/06/17 05:51:57;;;;;;;26.38;19.48;;;16.20;99.90;;;;;;6235664;22;20051;-82
2023/06/17 05:54:23;;;;;;;22.20;18.85;;;16.20;99.90;;;;;;6212394;22;20127;-82
2023/06/17 05:56:50;;;;;;;24.08;18.63;;;16.30;99.90;;;;;;6218150;22;20012;-82
2023/06/17 05:59:15;;;;;;;21.73;19.08;;;16.40;99.90;;;;;;6221950;22;20007;-82
2023/06/17 06:01:41;;;;;;;23.23;19.42;;;16.40;99.90;;;;;;6249095;22;20077;-82
2023/06/17 06:04:07;;;;;;;26.17;19.02;;;16.40;99.90;;;;;;6250365;22;20441;-83
2023/06/17 06:06:32;;;;;;;16.77;14.10;;;16.40;99.90;;;;;;6249355;22;20015;-84
2023/06/17 06:08:58;;;;;;;20.55;15.05;;;16.40;99.90;;;;;;6251263;22;20342;-90
2023/06/17 06:11:23;;;;;;;23.15;17.45;;;16.50;99.90;;;;;;6226996;22;20062;-90
2023/06/17 06:13:49;;;;;;;20.73;15.50;;;16.50;99.90;;;;;;6226291;22;20438;-90
2023/06/17 06:16:15;;;;;;;20.55;15.73;;;16.50;99.90;;;;;;6227033;22;20004;-89
2023/06/17 06:18:40;;;;;;;21.10;15.10;;;16.60;99.90;;;;;;6227334;22;20404;-90
2023/06/17 06:21:06;;;;;;;19.40;17.00;;;16.70;99.90;;;;;;6226807;22;20047;-83
2023/06/17 06:23:32;;;;;;;23.75;17.45;;;16.70;99.90;;;;;;6224887;22;20015;-83
2023/06/17 06:25:57;;;;;;;22.45;17.58;;;16.80;99.90;;;;;;6224639;22;20061;-83
2023/06/17 06:28:23;;;;;;;22.23;17.92;;;16.70;99.90;;;;;;6223989;22;20019;-83
2023/06/17 06:30:48;;;;;;;20.67;16.95;;;16.80;99.90;;;;;;6224291;22;20544;-83
2023/06/17 06:33:14;;;;;;;20.80;17.15;;;16.80;99.90;;;;;;6224234;22;20084;-83
2023/06/17 06:35:41;;;;;;;21.33;17.40;;;16.70;99.90;;;;;;6249693;22;20016;-83
2023/06/17 06:38:07;;;;;;;23.77;17.50;;;16.80;99.90;;;;;;6223947;22;20012;-83
2023/06/17 06:40:33;;;;;;;20.13;16.88;;;16.70;99.90;;;;;;6224463;22;20533;-83
2023/06/17 06:42:58;;;;;;;23.10;18.00;;;16.70;99.90;;;;;;6224373;22;20472;-83
2023/06/17 06:45:24;;;;;;;21.95;16.75;;;16.60;99.90;;;;;;6224296;22;20046;-83
2023/06/17 06:47:49;;;;;;;18.80;15.90;;;16.70;99.90;;;;;;6248927;22;20034;-83
2023/06/17 06:50:25;;;;;;;20.83;15.88;;;16.70;99.90;;;;;;6224783;22;20012;-83
2023/06/17 06:52:50;;;;;;;22.67;16.17;;;16.70;99.90;;;;;;6249032;22;20342;-83
2023/06/17 06:55:16;;;;;;;23.00;16.15;;;16.70;99.90;;;;;;6249026;22;20018;-82
2023/06/17 06:57:42;;;;;;;21.02;16.08;;;16.70;99.90;;;;;;6249102;22;20385;-82
2023/06/17 07:00:11;;;;;;;20.67;15.50;;;16.70;99.90;;;;;;6248871;22;20461;-83
2023/06/17 07:02:37;;;;;;;21.17;16.65;;;16.80;99.90;;;;;;6224324;22;20022;-83
2023/06/17 07:05:07;;;;;;;21.85;15.30;;;16.80;99.90;;;;;;6223443;22;20012;-83
2023/06/17 07:07:32;;;;;;;19.23;15.63;;;16.80;99.90;;;;;;6224050;22;20020;-81
2023/06/17 07:10:01;;;;;;;21.33;16.13;;;16.80;99.90;;;;;;6221996;22;20043;-81
2023/06/17 07:12:26;;;;;;;20.25;15.02;;;16.80;99.90;;;;;;6249111;22;20012;-83
2023/06/17 07:14:52;;;;;;;21.55;15.18;;;16.90;99.90;;;;;;6223517;22;20027;-83
2023/06/17 07:17:17;;;;;;;21.42;15.93;;;16.90;99.90;;;;;;6224854;22;20090;-83
2023/06/17 07:19:43;;;;;;;19.92;15.60;;;17.00;99.90;;;;;;6220002;22;20015;-81
2023/06/17 07:22:09;;;;;;;20.17;16.80;;;16.90;99.90;;;;;;6249071;22;20768;-81
2023/06/17 07:24:35;;;;;;;21.75;16.63;;;17.00;99.90;;;;;;6223946;22;20050;-81
2023/06/17 07:27:00;;;;;;;22.67;15.82;;;17.00;99.90;;;;;;6249761;22;20015;-81
2023/06/17 07:29:26;;;;;;;21.90;16.67;;;17.00;99.90;;;;;;6249600;22;20353;-81
2023/06/17 07:31:52;;;;;;;20.55;16.02;;;17.10;99.90;;;;;;6224481;22;20011;-81
2023/06/17 07:34:17;;;;;;;21.20;17.08;;;17.10;99.90;;;;;;6249504;22;20007;-81
2023/06/17 07:36:43;;;;;;;23.60;16.75;;;17.10;99.90;;;;;;6249605;22;20087;-80
2023/06/17 07:39:08;;;;;;;23.13;17.70;;;17.20;99.90;;;;;;6222608;22;20011;-81
2023/06/17 07:41:34;;;;;;;23.98;17.73;;;17.20;99.90;;;;;;6223927;22;20011;-81
2023/06/17 07:43:59;;;;;;;19.50;16.08;;;17.30;99.90;;;;;;6223797;22;20023;-81
2023/06/17 07:46:25;;;;;;;20.80;17.27;;;17.30;99.90;;;;;;6224424;22;20016;-81
2023/06/17 07:48:51;;;;;;;21.70;17.08;;;17.30;99.90;;;;;;6223699;22;20458;-81
2023/06/17 07:51:16;;;;;;;20.15;16.85;;;17.40;99.90;;;;;;6224190;22;20004;-81
2023/06/17 07:53:42;;;;;;;23.05;17.45;;;17.50;99.90;;;;;;6249408;22;20015;-81
2023/06/17 07:56:13;;;;;;;18.67;16.67;;;17.50;99.90;;;;;;6223825;22;20337;-81
2023/06/17 07:58:39;;;;;;;22.02;17.35;;;17.50;99.90;;;;;;6249123;22;20016;-81
2023/06/17 08:01:05;;;;;;;23.10;15.93;;;17.60;99.90;;;;;;6249555;22;20018;-81
2023/06/17 08:03:30;;;;;;;20.83;18.42;;;17.70;99.90;;;;;;6223836;22;20397;-80
2023/06/17 08:05:57;;;;;;;20.85;17.40;;;17.80;99.90;;;;;;6223399;22;20026;-81
2023/06/17 08:08:22;;;;;;;20.98;17.35;;;17.90;99.90;;;;;;6224214;22;20054;-81
2023/06/17 08:10:48;;;;;;;19.38;16.17;;;18.10;99.90;;;;;;6223757;22;20132;-81
2023/06/17 08:13:14;;;;;;;20.83;17.38;;;18.20;99.90;;;;;;6249493;22;20078;-80
2023/06/17 08:15:40;;;;;;;19.33;15.95;;;18.30;99.90;;;;;;6248831;22;20035;-81
2023/06/17 08:18:05;;;;;;;23.05;16.02;;;18.40;99.90;;;;;;6248971;22;20014;-81
2023/06/17 08:20:31;;;;;;;19.40;15.18;;;18.50;99.90;;;;;;6249507;22;20011;-81
2023/06/17 08:22:57;;;;;;;20.25;16.50;;;18.80;99.90;;;;;;6223879;22;20011;-81
2023/06/17 08:25:22;;;;;;;19.15;15.23;;;19.00;99.90;;;;;;6223708;22;20019;-81
2023/06/17 08:27:50;;;;;;;18.98;15.52;;;19.00;99.90;;;;;;6249303;22;20047;-81
2023/06/17 08:30:25;;;;;;;19.75;16.15;;;19.30;99.90;;;;;;6223543;22;20115;-81
2023/06/17 08:32:51;;;;;;;23.70;16.15;;;19.30;99.90;;;;;;6223518;22;20442;-82
2023/06/17 08:35:17;;;;;;;21.58;16.20;;;19.50;99.90;;;;;;6249333;22;20039;-81
2023/06/17 08:37:42;;;;;;;22.58;16.25;;;19.40;99.90;;;;;;6223701;22;20341;-81
2023/06/17 08:40:08;;;;;;;22.85;16.13;;;19.50;99.90;;;;;;6223690;22;20457;-81
2023/06/17 08:42:34;;;;;;;21.45;16.23;;;19.50;99.90;;;;;;6223446;22;20054;-81
2023/06/17 08:45:01;;;;;;;19.60;14.60;;;19.60;99.90;;;;;;6249210;22;20142;-81
2023/06/17 08:47:27;;;;;;;21.60;16.58;;;19.70;99.90;;;;;;6223568;22;20020;-81
2023/06/17 08:49:57;;;;;;;23.98;16.83;;;19.70;99.90;;;;;;6223436;22;20054;-81
2023/06/17 08:52:24;;;;;;;24.70;16.13;;;19.90;99.90;;;;;;6223927;22;20087;-82
2023/06/17 08:54:51;;;;;;;20.83;15.98;;;19.90;99.90;;;;;;6223333;22;20011;-81
2023/06/17 08:57:17;;;;;;;19.02;15.32;;;20.10;99.90;;;;;;6248813;22;20014;-81
2023/06/17 08:59:43;;;;;;;20.20;15.45;;;20.10;99.90;;;;;;6223966;22;20022;-82
2023/06/17 09:02:11;;;;;;;19.10;14.77;;;20.10;99.90;;;;;;6248663;22;20453;-81
2023/06/17 09:04:37;;;;;;;16.92;14.52;;;20.20;99.90;;;;;;6223223;22;20018;-81
2023/06/17 09:07:03;;;;;;;17.90;13.73;;;20.40;99.90;;;;;;6223796;22;20086;-80
2023/06/17 09:09:29;;;;;;;18.50;12.98;;;20.50;99.90;;;;;;6223401;22;20011;-81
2023/06/17 09:12:04;;;;;;;18.42;14.15;;;20.60;99.90;;;;;;6249015;22;20008;-80
2023/06/17 09:14:33;;;;;;;18.40;13.40;;;20.70;99.90;;;;;;6223637;22;20054;-81
2023/06/17 09:17:00;;;;;;;17.55;13.45;;;20.80;99.90;;;;;;6223579;22;20008;-81
2023/06/17 09:19:28;;;;;;;18.92;12.30;;;20.90;99.90;;;;;;6223421;22;20481;-81
2023/06/17 09:21:55;;;;;;;20.25;12.13;;;20.90;99.90;;;;;;6250449;22;20011;-81
2023/06/17 09:24:28;;;;;;;16.40;12.35;;;21.00;99.90;;;;;;6225427;22;20015;-81
2023/06/17 09:26:53;;;;;;;17.80;11.35;;;21.00;99.90;;;;;;6250585;22;20069;-81
2023/06/17 09:29:21;;;;;;;17.15;10.82;;;21.10;99.90;;;;;;6225347;22;20008;-81
2023/06/17 09:31:52;;;;;;;16.02;12.60;;;21.20;99.90;;;;;;6250175;22;20011;-81
2023/06/17 09:34:19;;;;;;;17.98;11.90;;;21.30;99.90;;;;;;6225183;22;20007;-81
2023/06/17 09:36:46;;;;;;;16.90;11.43;;;21.50;99.90;;;;;;6225406;22;20498;-81
2023/06/17 09:39:12;;;;;;;14.07;10.95;;;21.60;99.90;;;;;;6225399;22;20023;-81
2023/06/17 09:41:43;;;;;;;13.68;11.45;;;21.60;99.90;;;;;;6249973;22;20434;-81
2023/06/17 09:44:09;;;;;;;16.00;12.13;;;21.70;99.90;;;;;;6224059;22;20020;-80
2023/06/17 09:46:36;;;;;;;20.13;12.00;;;21.90;99.90;;;;;;6223406;22;20073;-79
2023/06/17 09:49:09;;;;;;;16.70;11.55;;;21.70;99.90;;;;;;6249986;22;20016;-79
2023/06/17 09:51:38;;;;;;;14.45;11.15;;;21.80;99.90;;;;;;6223502;22;20016;-79
2023/06/17 09:54:06;;;;;;;16.20;12.15;;;21.80;99.90;;;;;;6248947;22;20079;-79
2023/06/17 09:56:33;;;;;;;16.80;11.70;;;21.90;99.90;;;;;;6249194;22;20069;-79
2023/06/17 09:58:59;;;;;;;17.00;11.40;;;22.10;99.90;;;;;;6225111;22;20008;-80
2023/06/17 10:01:30;;;;;;;16.23;12.35;;;22.20;99.90;;;;;;6223945;22;20441;-80
2023/06/17 10:03:57;;;;;;;14.68;12.38;;;22.20;99.90;;;;;;6249045;22;20011;-79
2023/06/17 10:06:23;;;;;;;16.45;11.20;;;22.30;99.90;;;;;;6224271;22;20450;-80
2023/06/17 10:08:50;;;;;;;16.00;11.75;;;22.40;99.90;;;;;;6250494;22;20022;-79
2023/06/17 10:11:20;;;;;;;13.32;10.75;;;22.40;99.90;;;;;;6225404;22;20038;-79
2023/06/17 10:13:54;;;;;;;12.73;10.55;;;22.50;99.90;;;;;;6248434;22;20358;-80
2023/06/17 10:16:21;;;;;;;13.55;10.77;;;22.60;99.90;;;;;;6222868;22;20008;-79
2023/06/17 10:18:51;;;;;;;14.18;10.82;;;22.70;99.90;;;;;;6224378;22;20011;-80
2023/06/17 10:21:19;;;;;;;15.73;10.70;;;22.80;99.90;;;;;;6250132;22;20012;-79
2023/06/17 10:23:45;;;;;;;13.02;10.18;;;22.70;99.90;;;;;;6224686;22;20012;-79
2023/06/17 10:26:12;;;;;;;14.90;10.40;;;22.80;99.90;;;;;;6224791;22;20086;-79
2023/06/17 10:28:53;;;;;;;15.00;10.40;;;22.70;99.90;;;;;;6248549;22;20318;-79
2023/06/17 10:31:22;;;;;;;14.23;9.57;;;22.80;99.90;;;;;;6223058;22;20015;-79
2023/06/17 10:33:49;;;;;;;14.13;10.10;;;22.80;99.90;;;;;;6248368;22;20011;-80
2023/06/17 10:36:15;;;;;;;16.30;10.35;;;22.90;99.90;;;;;;6224475;22;20049;-78
2023/06/17 10:38:40;;;;;;;12.75;9.38;;;22.90;99.90;;;;;;6249808;22;20412;-80
2023/06/17 10:41:06;;;;;;;14.15;9.75;;;23.10;99.90;;;;;;6274510;22;20090;-80
2023/06/17 10:43:38;;;;;;;13.07;9.63;;;23.10;99.90;;;;;;6223800;22;20384;-80
2023/06/17 10:46:04;;;;;;;12.23;9.95;;;23.30;99.90;;;;;;6249024;22;20414;-80
2023/06/17 10:48:47;;;;;;;16.05;8.57;;;23.30;99.90;;;;;;6249233;22;20016;-80
2023/06/17 10:51:14;;;;;;;14.93;9.52;;;23.40;99.90;;;;;;6275936;22;20051;-80
2023/06/17 10:53:47;;;;;;;17.20;10.63;;;23.40;99.90;;;;;;6275965;22;20086;-81
2023/06/17 10:56:13;;;;;;;13.32;9.77;;;23.50;99.90;;;;;;6250158;22;20052;-81
2023/06/17 10:58:44;;;;;;;12.25;8.90;;;23.60;99.90;;;;;;6275623;22;20015;-81
2023/06/17 11:01:11;;;;;;;22.58;8.50;;;23.60;99.90;;;;;;6301294;22;20074;-81
2023/06/17 11:03:37;;;;;;;14.23;9.07;;;23.60;99.90;;;;;;6273418;22;20020;-80
2023/06/17 11:06:05;;;;;;;12.48;8.57;;;23.70;99.90;;;;;;6222647;22;20030;-81
2023/06/17 11:08:33;;;;;;;14.38;8.75;;;23.70;99.90;;;;;;6208639;22;20016;-81
2023/06/17 11:11:10;;;;;;;12.02;8.65;;;23.80;99.90;;;;;;6247504;22;20408;-81
2023/06/17 11:13:40;;;;;;;14.40;8.32;;;23.90;99.90;;;;;;6223339;22;20434;-80
2023/06/17 11:16:07;;;;;;;11.37;7.90;;;23.90;99.90;;;;;;6298764;22;20350;-81
2023/06/17 11:18:41;;;;;;;14.50;9.35;;;24.00;99.90;;;;;;6299022;22;20046;-80
2023/06/17 11:21:08;;;;;;;15.95;9.00;;;24.00;99.90;;;;;;6248901;22;20434;-81
2023/06/17 11:23:35;;;;;;;15.25;9.05;;;24.00;99.90;;;;;;6300771;22;20010;-80
2023/06/17 11:26:01;;;;;;;14.35;9.43;;;24.00;99.90;;;;;;6224163;22;20004;-81
2023/06/17 11:28:29;;;;;;;14.75;9.82;;;24.10;99.90;;;;;;6224350;22;20007;-81
2023/06/17 11:30:56;;;;;;;15.15;9.50;;;24.10;99.90;;;;;;6223125;22;20007;-80
2023/06/17 11:33:22;;;;;;;12.45;8.40;;;24.10;99.90;;;;;;6273599;22;20008;-79
2023/06/17 11:35:49;;;;;;;12.38;8.57;;;24.10;99.90;;;;;;6249525;22;20100;-80
2023/06/17 11:38:18;;;;;;;11.93;7.88;;;24.20;99.90;;;;;;6224365;22;20015;-80
2023/06/17 11:40:44;;;;;;;11.73;8.45;;;24.30;99.90;;;;;;6224660;22;20008;-80
2023/06/17 11:43:10;;;;;;;12.30;8.05;;;24.40;99.90;;;;;;6219433;22;20377;-80
2023/06/17 11:45:36;;;;;;;15.90;7.63;;;24.50;99.90;;;;;;6248104;22;20007;-80
2023/06/17 11:48:06;;;;;;;10.52;7.72;;;24.40;99.90;;;;;;6249293;22;20086;-80
2023/06/17 11:50:32;;;;;;;10.55;8.02;;;24.50;99.90;;;;;;6224276;22;20012;-80
2023/06/17 11:53:00;;;;;;;12.52;7.97;;;24.50;99.90;;;;;;6249044;22;20007;-80
2023/06/17 11:55:33;;;;;;;12.30;8.25;;;24.60;99.90;;;;;;6248749;22;20458;-80
2023/06/17 11:58:05;;;;;;;11.50;8.35;;;24.50;99.90;;;;;;6249350;22;20011;-80
2023/06/17 12:00:36;;;;;;;12.35;7.70;;;24.60;99.90;;;;;;6248787;22;20449;-80
2023/06/17 12:03:03;;;;;;;11.13;7.93;;;24.60;99.90;;;;;;6221501;22;20022;-80
2023/06/17 12:05:30;;;;;;;15.27;8.82;;;24.60;99.90;;;;;;6273497;22;20091;-80
2023/06/17 12:08:00;;;;;;;11.30;7.68;;;24.60;99.90;;;;;;6223287;22;20019;-81
2023/06/17 12:10:26;;;;;;;11.73;8.38;;;24.60;99.90;;;;;;6249404;22;20452;-80
2023/06/17 12:12:56;;;;;;;12.60;8.43;;;24.60;99.90;;;;;;6274870;22;20020;-80
2023/06/17 12:15:27;;;;;;;15.45;8.60;;;24.60;99.90;;;;;;6223964;22;20389;-80
2023/06/17 12:17:53;;;;;;;;;;;24.70;99.90;;;;;;6224717;22;20019;-80
2023/06/17 12:20:20;;;;;;;12.27;8.75;;;24.60;99.90;;;;;;6247551;22;19911;-81
2023/06/17 12:22:48;;;;;;;12.50;8.60;;;24.70;99.90;;;;;;6248595;22;20011;-80
2023/06/17 12:25:14;;;;;;;12.38;8.50;;;24.60;99.90;;;;;;6275064;22;20012;-80
2023/06/17 12:27:41;;;;;;;13.90;9.10;;;24.70;99.90;;;;;;6274896;22;20018;-81